Aviation Digital Data Service (ADDS)

Output produced by METARs form (1444 UTC 27 November 2021)
found at http://www.aviationweather.gov/metar/data/
 
METAR text: LFLU 271430Z AUTO 12005KT 9999 FEW064 BKN100 BKN120 07/04 Q0996
Conditions at: LFLU (VALENCE-CHABEUIL, FR) observed 1430 UTC 27 November 2021
Temperature: 7.0°C (45°F)
Dewpoint: 4.0°C (39°F) [RH = 81%]
Pressure (altimeter): 29.41 inches Hg (996.0 mb)
Winds: from the ESE (120 degrees) at 6 MPH (5 knots; 2.6 m/s)
Visibility: 6 or more miles (10+ km)
Ceiling: 10000 feet AGL
Clouds: few clouds at 6400 feet AGL
broken clouds at 10000 feet AGL
broken clouds at 12000 feet AGL
Weather: no significant weather observed at this time